Time;durP1;ratioP1;P1;durP2;ratioP2;P2;SDS_P1;SDS_P2;PMS_P1;PMS_P2;Temp;Humidity;BMP_temperature;BMP_pressure;BME280_temperature;BME280_humidity;BME280_pressure;Samples;Min_cycle;Max_cycle;Signal;HPM_P1;HPM_P2
2023/09/03 00:00:20;;;;;;;4.57;2.70;;;;;;;27.49;40.48;97001.19;5081359;28;20024;-27
2023/09/03 00:02:45;;;;;;;4.70;2.70;;;;;;;27.38;40.58;97000.56;5081053;28;20029;-29
2023/09/03 00:05:11;;;;;;;6.70;2.67;;;;;;;27.46;40.68;97007.03;5083124;28;20027;-27
2023/09/03 00:07:36;;;;;;;5.70;2.50;;;;;;;27.37;40.33;96997.03;5085298;28;20016;-27
2023/09/03 00:10:01;;;;;;;3.90;2.30;;;;;;;27.39;40.73;96996.50;5084433;28;20165;-27
2023/09/03 00:12:27;;;;;;;5.43;2.30;;;;;;;27.36;40.41;96989.19;5084390;28;20066;-26
2023/09/03 00:14:54;;;;;;;3.65;2.50;;;;;;;27.46;40.50;96984.75;5085953;28;20020;-27
2023/09/03 00:17:19;;;;;;;7.45;2.58;;;;;;;27.41;40.79;96986.34;5088472;28;20016;-26
2023/09/03 00:19:45;;;;;;;5.50;2.35;;;;;;;27.65;40.05;96979.97;5081427;28;20021;-27
2023/09/03 00:22:10;;;;;;;5.32;2.60;;;;;;;27.47;40.49;96980.69;5088292;28;20350;-27
2023/09/03 00:24:36;;;;;;;4.05;2.22;;;;;;;27.37;40.38;96977.53;5080868;28;20042;-27
2023/09/03 00:27:01;;;;;;;5.32;2.40;;;;;;;27.37;40.53;96985.88;5086284;28;20369;-27
2023/09/03 00:29:27;;;;;;;3.97;2.28;;;;;;;27.44;40.55;96982.53;5083082;28;20028;-27
2023/09/03 00:31:52;;;;;;;5.07;2.40;;;;;;;27.42;40.41;96982.28;5084107;28;20047;-26
2023/09/03 00:34:17;;;;;;;4.93;2.13;;;;;;;27.42;40.10;96985.06;5084795;28;20353;-27
2023/09/03 00:36:44;;;;;;;5.50;2.60;;;;;;;27.54;39.81;96992.00;5082735;28;20030;-27
2023/09/03 00:39:10;;;;;;;5.47;2.20;;;;;;;27.34;40.05;96989.72;5083933;28;20032;-27
2023/09/03 00:41:36;;;;;;;7.55;3.13;;;;;;;27.37;39.85;96985.88;5083449;28;20066;-26
2023/09/03 00:44:03;;;;;;;5.82;2.47;;;;;;;27.39;39.92;96980.53;5084064;28;20024;-27
2023/09/03 00:46:29;;;;;;;4.43;2.28;;;;;;;27.47;39.30;96972.34;5085336;28;20541;-27
2023/09/03 00:48:55;;;;;;;4.45;2.53;;;;;;;27.47;39.49;96975.13;5080417;28;20365;-27
2023/09/03 00:51:21;;;;;;;4.25;2.35;;;;;;;27.47;39.35;96975.88;5077691;28;20098;-26
2023/09/03 00:53:51;;;;;;;5.93;2.63;;;;;;;27.45;39.18;96983.25;5083056;28;20052;-27
2023/09/03 00:56:16;;;;;;;3.55;2.40;;;;;;;27.43;39.29;96983.78;5073477;28;20020;-27
2023/09/03 00:58:43;;;;;;;4.88;2.72;;;;;;;27.41;39.11;96971.66;5087303;28;20111;-27
2023/09/03 01:01:09;;;;;;;6.85;2.80;;;;;;;27.42;38.95;96975.97;5075480;28;20028;-27
2023/09/03 01:03:35;;;;;;;3.65;2.38;;;;;;;27.29;39.04;96982.19;5091127;28;20032;-27
2023/09/03 01:06:01;;;;;;;4.90;2.50;;;;;;;27.42;38.67;96984.31;5075510;28;20477;-27
2023/09/03 01:08:28;;;;;;;5.47;2.30;;;;;;;27.46;38.58;96979.94;5080982;28;20029;-27
2023/09/03 01:11:18;;;;;;;6.65;2.70;;;;;;;27.45;38.07;96986.03;5073147;28;20378;-27
2023/09/03 01:14:02;;;;;;;5.10;2.35;;;;;;;27.49;37.80;96978.88;5073615;28;20017;-28
2023/09/03 01:16:34;;;;;;;5.45;2.45;;;;;;;27.40;37.78;96987.63;5080896;28;20033;-26
2023/09/03 01:19:08;;;;;;;4.88;2.60;;;;;;;27.36;38.23;96978.81;5080236;28;20024;-27
2023/09/03 01:21:55;;;;;;;3.65;2.53;;;;;;;27.21;38.01;96984.06;5080382;28;20149;-27
2023/09/03 01:24:40;;;;;;;4.05;2.40;;;;;;;27.23;37.97;96981.50;5080410;28;20024;-26
2023/09/03 01:27:33;;;;;;;3.60;1.98;;;;;;;27.38;37.65;96995.75;5073478;28;20020;-28
2023/09/03 01:29:59;;;;;;;4.72;2.60;;;;;;;27.35;37.96;97002.38;5077436;28;20020;-27
2023/09/03 01:32:25;;;;;;;4.78;2.22;;;;;;;27.47;37.98;96998.16;5083003;28;20052;-27
2023/09/03 01:34:52;;;;;;;3.15;2.20;;;;;;;27.22;38.10;96990.38;5079685;28;20075;-27
2023/09/03 01:37:18;;;;;;;5.35;2.35;;;;;;;27.21;38.51;96994.44;5080672;28;20028;-27
2023/09/03 01:39:45;;;;;;;4.85;2.28;;;;;;;27.45;38.06;96991.59;5079960;28;20516;-27
2023/09/03 01:42:10;;;;;;;8.02;2.78;;;;;;;27.47;37.90;96994.63;5080729;28;20027;-27
2023/09/03 01:44:36;;;;;;;5.50;2.50;;;;;;;27.43;37.96;97003.28;5079772;28;20016;-27
2023/09/03 01:47:25;;;;;;;3.17;2.22;;;;;;;27.43;38.34;97000.50;5080831;28;20024;-27
2023/09/03 01:50:02;;;;;;;3.83;2.55;;;;;;;27.24;38.14;96996.94;5080413;28;20024;-27
2023/09/03 01:52:37;;;;;;;4.63;2.45;;;;;;;27.28;38.63;96994.63;5085492;28;20023;-28
2023/09/03 01:55:07;;;;;;;5.18;2.28;;;;;;;27.16;38.81;96996.78;5080482;28;20021;-27
2023/09/03 01:57:36;;;;;;;4.00;2.00;;;;;;;27.16;39.08;96999.56;5080385;28;20020;-28
2023/09/03 02:00:06;;;;;;;3.20;2.53;;;;;;;27.27;38.84;97001.47;5079925;28;20024;-26
2023/09/03 02:02:33;;;;;;;4.78;2.50;;;;;;;27.19;39.31;97008.91;5079823;28;20492;-27
2023/09/03 02:04:58;;;;;;;4.28;2.10;;;;;;;27.17;39.07;97003.09;5079283;28;20024;-27
2023/09/03 02:07:24;;;;;;;4.85;2.40;;;;;;;27.36;38.78;97003.13;5079870;28;20054;-27
2023/09/03 02:09:49;;;;;;;3.28;2.00;;;;;;;27.34;38.91;97000.84;5078273;28;20020;-29
2023/09/03 02:12:16;;;;;;;3.90;2.40;;;;;;;27.31;39.21;97001.16;5082666;28;20373;-27
2023/09/03 02:14:42;;;;;;;6.57;2.45;;;;;;;27.34;39.36;97008.47;5084011;28;20042;-28
2023/09/03 02:17:09;;;;;;;5.63;3.00;;;;;;;27.34;39.30;97020.34;5075753;28;20477;-26
2023/09/03 02:19:34;;;;;;;4.32;2.40;;;;;;;27.39;39.18;97019.53;5085974;28;20028;-27
2023/09/03 02:22:00;;;;;;;5.53;2.40;;;;;;;27.17;39.85;97022.59;5081113;28;20023;-27
2023/09/03 02:24:25;;;;;;;4.50;2.20;;;;;;;27.14;39.65;97023.63;5083933;28;20558;-27
2023/09/03 02:26:51;;;;;;;4.82;2.70;;;;;;;27.04;40.26;97026.03;5083764;28;20017;-27
2023/09/03 02:29:16;;;;;;;5.32;2.30;;;;;;;27.10;39.70;97012.78;5083400;28;20020;-27
2023/09/03 02:31:42;;;;;;;5.70;2.30;;;;;;;27.15;39.90;97016.78;5085060;28;20024;-27
2023/09/03 02:34:09;;;;;;;6.72;2.20;;;;;;;27.25;39.87;97012.38;5086196;28;20034;-27
2023/09/03 02:36:35;;;;;;;4.68;2.45;;;;;;;27.28;39.38;97014.13;5084953;28;20027;-28
2023/09/03 02:39:00;;;;;;;5.43;2.53;;;;;;;27.33;39.75;97016.06;5086904;28;20681;-28
2023/09/03 02:41:26;;;;;;;4.57;2.45;;;;;;;27.32;39.90;97016.59;5087536;28;20119;-27
2023/09/03 02:43:52;;;;;;;4.13;2.15;;;;;;;27.19;39.98;97014.47;5082992;28;20024;-27
2023/09/03 02:46:17;;;;;;;5.60;2.40;;;;;;;27.25;40.14;97015.16;5080172;28;20484;-27
2023/09/03 02:48:43;;;;;;;5.70;2.60;;;;;;;27.32;40.43;97020.16;5077896;28;20027;-26
2023/09/03 02:51:08;;;;;;;5.72;2.45;;;;;;;27.13;40.78;97022.88;5089035;28;20466;-27
2023/09/03 02:53:34;;;;;;;3.80;2.60;;;;;;;27.34;40.54;97022.38;5083088;28;20571;-27
2023/09/03 02:55:59;;;;;;;4.25;2.20;;;;;;;27.17;40.94;97012.22;5083504;28;20020;-27
2023/09/03 02:58:25;;;;;;;3.38;2.25;;;;;;;27.18;41.61;97007.41;5078102;28;20020;-28
2023/09/03 03:00:50;;;;;;;3.47;2.20;;;;;;;27.20;41.44;97009.66;5085862;28;20028;-28
2023/09/03 03:03:16;;;;;;;3.92;2.38;;;;;;;27.34;41.42;97012.00;5082357;28;20390;-27
2023/09/03 03:05:41;;;;;;;3.70;2.00;;;;;;;27.24;41.88;97007.31;5080667;28;20023;-27
2023/09/03 03:08:08;;;;;;;6.05;2.40;;;;;;;27.35;41.92;97002.38;5077460;28;20500;-27
2023/09/03 03:10:34;;;;;;;6.75;2.50;;;;;;;27.08;42.63;97001.41;5083223;28;20448;-26
2023/09/03 03:12:59;;;;;;;4.47;2.38;;;;;;;27.04;42.97;97000.22;5082633;28;20020;-27
2023/09/03 03:15:24;;;;;;;4.68;2.30;;;;;;;27.23;42.91;97001.00;5084413;28;20032;-27
2023/09/03 03:17:50;;;;;;;5.95;2.60;;;;;;;27.16;43.10;96993.25;5081238;28;20500;-26
2023/09/03 03:20:15;;;;;;;4.80;2.50;;;;;;;27.12;43.41;96990.00;5082525;28;20020;-27
2023/09/03 03:22:41;;;;;;;5.55;2.35;;;;;;;27.19;43.20;96992.19;5077914;28;20111;-27
2023/09/03 03:25:09;;;;;;;4.20;2.33;;;;;;;27.24;43.02;96991.38;5085770;28;20024;-27
2023/09/03 03:27:35;;;;;;;4.88;2.55;;;;;;;27.15;43.76;96994.53;5076677;28;20509;-27
2023/09/03 03:30:01;;;;;;;5.10;2.05;;;;;;;27.26;43.04;96983.25;5085329;28;20035;-27
2023/09/03 03:32:26;;;;;;;5.32;2.22;;;;;;;27.28;43.39;96991.06;5076927;28;20020;-28
2023/09/03 03:34:51;;;;;;;5.00;2.35;;;;;;;27.17;43.60;96986.41;5082578;28;20470;-28
2023/09/03 03:37:17;;;;;;;6.15;2.10;;;;;;;27.21;43.27;96975.69;5082636;28;20412;-27
2023/09/03 03:39:42;;;;;;;6.30;2.28;;;;;;;27.16;42.72;96974.50;5081567;28;20068;-27
2023/09/03 03:42:08;;;;;;;3.47;2.35;;;;;;;26.99;43.50;96971.16;5082365;28;20020;-27
2023/09/03 03:44:34;;;;;;;4.47;2.60;;;;;;;27.09;43.35;96966.72;5081722;28;20020;-27
2023/09/03 03:46:59;;;;;;;4.70;2.50;;;;;;;27.20;43.06;96974.19;5073088;28;20166;-27
2023/09/03 03:49:25;;;;;;;4.57;2.63;;;;;;;27.13;43.36;96972.00;5081943;28;20023;-27
2023/09/03 03:51:50;;;;;;;6.18;2.55;;;;;;;27.13;43.51;96974.78;5082294;28;20110;-26
2023/09/03 03:54:16;;;;;;;4.82;2.38;;;;;;;27.17;43.03;96969.69;5081818;28;20435;-27
2023/09/03 03:56:42;;;;;;;4.90;2.40;;;;;;;27.10;43.55;96975.84;5081206;28;20020;-29
2023/09/03 03:59:07;;;;;;;4.55;2.58;;;;;;;27.14;43.66;96979.84;5076364;28;20025;-27
2023/09/03 04:01:33;;;;;;;5.45;2.50;;;;;;;27.21;43.57;96988.88;5087135;28;20496;-27
2023/09/03 04:03:58;;;;;;;6.57;2.47;;;;;;;27.25;43.62;96980.97;5080967;28;20027;-26
2023/09/03 04:06:24;;;;;;;7.55;2.63;;;;;;;27.23;43.82;96983.53;5089436;28;20035;-27
2023/09/03 04:08:49;;;;;;;3.80;2.63;;;;;;;27.08;43.94;96987.50;5087686;28;20427;-27
2023/09/03 04:11:20;;;;;;;5.45;2.58;;;;;;;27.14;43.93;96988.19;5082787;28;20032;-27
2023/09/03 04:13:46;;;;;;;4.22;2.65;;;;;;;27.12;43.87;96987.97;5086523;28;20012;-27
2023/09/03 04:16:17;;;;;;;5.70;2.60;;;;;;;27.14;44.12;96990.22;5084248;28;20020;-27
2023/09/03 04:18:44;;;;;;;3.47;2.50;;;;;;;27.20;43.96;96990.16;5081241;28;20025;-27
2023/09/03 04:21:10;;;;;;;7.18;2.97;;;;;;;27.15;44.26;96989.69;5081570;28;20028;-29
2023/09/03 04:23:36;;;;;;;7.10;2.67;;;;;;;27.23;43.95;96994.66;5083669;28;20497;-27
2023/09/03 04:26:02;;;;;;;5.63;2.70;;;;;;;27.15;43.83;97000.09;5084430;28;20024;-29
2023/09/03 04:28:27;;;;;;;6.30;2.40;;;;;;;27.23;43.88;97006.56;5082531;28;20059;-28
2023/09/03 04:30:55;;;;;;;5.22;2.75;;;;;;;27.08;44.33;97006.22;5073911;28;20055;-27
2023/09/03 04:33:21;;;;;;;4.65;2.92;;;;;;;27.14;44.36;96999.34;5072336;28;20094;-27
2023/09/03 04:35:47;;;;;;;4.70;2.90;;;;;;;27.03;44.51;97009.84;5080875;28;20431;-27
2023/09/03 04:38:12;;;;;;;6.00;2.60;;;;;;;27.12;44.36;97001.13;5079075;28;20032;-27
2023/09/03 04:40:38;;;;;;;5.20;2.83;;;;;;;27.10;44.56;97003.69;5075506;28;20056;-27
2023/09/03 04:43:04;;;;;;;5.85;2.80;;;;;;;26.99;44.85;96998.22;5084051;28;20468;-27
2023/09/03 04:45:31;;;;;;;4.35;2.30;;;;;;;27.06;44.38;97000.44;5077584;28;20496;-27
2023/09/03 04:47:56;;;;;;;4.35;2.33;;;;;;;27.13;44.35;97002.63;5080685;28;20039;-27
2023/09/03 04:50:22;;;;;;;5.47;2.75;;;;;;;27.19;44.72;96997.78;5073565;28;20028;-28
2023/09/03 04:52:48;;;;;;;5.50;2.78;;;;;;;27.00;44.63;96999.75;5080805;28;20016;-26
2023/09/03 04:55:15;;;;;;;4.97;2.75;;;;;;;27.21;44.86;97003.53;5083890;28;20385;-27
2023/09/03 04:57:40;;;;;;;8.20;2.40;;;;;;;27.10;44.29;97000.88;5084162;28;20016;-28
2023/09/03 05:00:07;;;;;;;3.92;2.58;;;;;;;26.95;45.22;97003.34;5075836;28;20507;-27
2023/09/03 05:02:33;;;;;;;4.95;2.58;;;;;;;27.08;44.59;97011.78;5079395;28;20103;-27
2023/09/03 05:04:59;;;;;;;5.95;2.42;;;;;;;27.03;44.72;97005.03;5080472;28;20031;-26
2023/09/03 05:07:24;;;;;;;6.63;2.38;;;;;;;27.08;44.56;97012.53;5080475;28;20024;-27
2023/09/03 05:09:54;;;;;;;3.63;2.60;;;;;;;26.89;45.21;97016.53;5079258;28;20411;-28
2023/09/03 05:12:20;;;;;;;6.78;2.67;;;;;;;27.10;44.91;97017.59;5080970;28;20436;-27
2023/09/03 05:14:45;;;;;;;5.22;2.50;;;;;;;26.98;45.20;97019.00;5077917;28;20011;-27
2023/09/03 05:17:11;;;;;;;3.83;2.60;;;;;;;26.95;45.18;97020.06;5075935;28;20477;-27
2023/09/03 05:19:37;;;;;;;6.07;2.90;;;;;;;26.88;45.27;97018.56;5084013;28;20385;-27
2023/09/03 05:22:02;;;;;;;5.90;2.72;;;;;;;27.03;45.11;97023.75;5091234;28;20028;-26
2023/09/03 05:24:28;;;;;;;5.30;2.92;;;;;;;26.98;45.37;97019.75;5075048;28;20029;-27
2023/09/03 05:26:54;;;;;;;6.00;2.83;;;;;;;27.08;44.98;97011.78;5079347;28;20039;-26
2023/09/03 05:29:19;;;;;;;4.15;2.60;;;;;;;27.04;45.02;97005.78;5080686;28;20024;-27
2023/09/03 05:31:44;;;;;;;5.15;2.80;;;;;;;27.02;45.11;97009.09;5080433;28;20060;-26
2023/09/03 05:34:10;;;;;;;9.20;4.45;;;;;;;27.20;45.15;97010.38;5080309;28;20089;-28
2023/09/03 05:36:35;;;;;;;5.10;3.65;;;;;;;27.17;44.91;97011.47;5080214;28;20025;-27
2023/09/03 05:39:01;;;;;;;5.93;3.13;;;;;;;27.16;44.74;97007.16;5080071;28;20028;-28
2023/09/03 05:41:27;;;;;;;8.75;2.60;;;;;;;27.20;44.87;97001.31;5079473;28;20073;-27
2023/09/03 05:43:53;;;;;;;7.53;2.97;;;;;;;27.06;45.21;96994.88;5080543;28;20028;-27
2023/09/03 05:46:19;;;;;;;4.22;2.60;;;;;;;27.09;45.29;97002.16;5077887;28;20392;-27
2023/09/03 05:48:49;;;;;;;6.15;2.85;;;;;;;27.07;45.26;97001.97;5077307;28;20025;-28
2023/09/03 05:51:15;;;;;;;5.57;2.85;;;;;;;27.12;44.98;97012.25;5090807;28;20381;-27
2023/09/03 05:53:40;;;;;;;6.43;2.72;;;;;;;27.17;45.46;97005.88;5076675;28;20020;-29
2023/09/03 05:56:07;;;;;;;4.13;2.90;;;;;;;27.15;44.94;97000.84;5086594;28;20032;-27
2023/09/03 05:58:33;;;;;;;5.78;2.85;;;;;;;27.24;45.03;97002.50;5087353;28;20077;-27
2023/09/03 06:01:02;;;;;;;4.82;2.78;;;;;;;27.24;45.13;96999.72;5085625;28;20020;-26
2023/09/03 06:03:28;;;;;;;6.95;2.80;;;;;;;27.24;45.09;97008.06;5087409;28;20069;-27
2023/09/03 06:05:53;;;;;;;5.35;2.97;;;;;;;27.20;45.02;97013.16;5087142;28;20090;-27
2023/09/03 06:08:18;;;;;;;4.10;2.85;;;;;;;27.23;45.41;97009.34;5085400;28;20106;-27
2023/09/03 06:10:44;;;;;;;4.05;2.60;;;;;;;27.24;45.44;97007.31;5081865;28;20111;-27
2023/09/03 06:13:09;;;;;;;5.25;3.13;;;;;;;27.21;45.51;97009.13;5083962;28;20036;-29
2023/09/03 06:15:35;;;;;;;5.88;2.90;;;;;;;27.35;45.20;97010.72;5087123;28;20027;-27
2023/09/03 06:18:00;;;;;;;6.22;2.90;;;;;;;27.25;45.26;97004.00;5086497;28;20030;-28
2023/09/03 06:20:25;;;;;;;8.52;3.50;;;;;;;27.06;45.66;97009.56;5084496;28;20028;-26
2023/09/03 06:22:51;;;;;;;6.00;3.28;;;;;;;27.38;45.10;97020.81;5080314;28;20038;-28
2023/09/03 06:25:18;;;;;;;12.32;3.25;;;;;;;27.25;45.82;97025.53;5079315;28;20381;-27
2023/09/03 06:27:43;;;;;;;6.30;2.60;;;;;;;27.21;45.45;97019.50;5091164;28;20026;-26
2023/09/03 06:30:09;;;;;;;4.22;2.60;;;;;;;27.06;46.18;97031.84;5081690;28;20095;-26
2023/09/03 06:32:36;;;;;;;6.03;2.80;;;;;;;27.04;46.61;97039.19;5078154;28;20017;-27
2023/09/03 06:35:03;;;;;;;6.35;2.70;;;;;;;27.22;45.94;97038.47;5089802;28;20086;-26
2023/09/03 06:37:28;;;;;;;5.60;2.72;;;;;;;27.29;45.97;97032.34;5090439;28;20107;-27
2023/09/03 06:39:54;;;;;;;5.68;3.10;;;;;;;27.25;46.08;97047.81;5085324;28;20119;-26
2023/09/03 06:42:19;;;;;;;5.00;3.25;;;;;;;27.34;45.74;97041.88;5086651;28;20028;-27
2023/09/03 06:44:44;;;;;;;6.15;3.10;;;;;;;27.26;45.87;97041.72;5084808;28;20084;-27
2023/09/03 06:47:10;;;;;;;3.63;2.83;;;;;;;27.51;45.47;97045.22;5085939;28;20018;-27
2023/09/03 06:49:35;;;;;;;4.15;2.80;;;;;;;27.27;46.38;97048.81;5085953;28;20508;-26
2023/09/03 06:52:01;;;;;;;5.25;2.72;;;;;;;27.16;46.58;97043.34;5085612;28;20127;-26
2023/09/03 06:54:26;;;;;;;8.35;2.78;;;;;;;27.27;46.22;97054.38;5081672;28;20022;-27
2023/09/03 06:56:51;;;;;;;4.38;2.50;;;;;;;27.42;45.71;97057.50;5082846;28;20013;-28
2023/09/03 06:59:20;;;;;;;7.57;2.72;;;;;;;27.27;46.42;97065.50;5085809;28;20073;-26
2023/09/03 07:01:46;;;;;;;4.63;2.67;;;;;;;27.35;46.13;97060.84;5079030;28;20478;-27
2023/09/03 07:04:11;;;;;;;3.28;2.45;;;;;;;27.53;45.75;97065.72;5074480;28;20035;-27
2023/09/03 07:06:37;;;;;;;7.75;3.05;;;;;;;27.35;46.27;97074.78;5082962;28;20458;-26
2023/09/03 07:09:02;;;;;;;6.07;2.83;;;;;;;27.38;46.58;97078.56;5075446;28;20537;-26
2023/09/03 07:11:27;;;;;;;8.30;3.00;;;;;;;27.47;46.52;97090.09;5085107;28;20542;-27
2023/09/03 07:13:53;;;;;;;4.45;2.55;;;;;;;27.48;45.80;97088.81;5079805;28;20020;-26
2023/09/03 07:16:19;;;;;;;6.88;2.80;;;;;;;27.40;46.39;97096.25;5082700;28;20028;-26
2023/09/03 07:18:44;;;;;;;9.45;2.72;;;;;;;27.48;46.16;97099.19;5075491;28;20020;-27
2023/09/03 07:21:10;;;;;;;4.88;3.20;;;;;;;27.48;46.07;97110.34;5082919;28;20039;-27
2023/09/03 07:23:35;;;;;;;8.85;3.13;;;;;;;27.66;45.91;97108.91;5084534;28;20086;-27
2023/09/03 07:26:05;;;;;;;4.80;2.70;;;;;;;27.40;46.11;97110.19;5085461;28;20085;-28
2023/09/03 07:28:31;;;;;;;4.47;2.80;;;;;;;27.55;46.56;97109.78;5076746;28;20093;-26
2023/09/03 07:30:56;;;;;;;5.78;2.97;;;;;;;27.64;45.55;97108.69;5081132;28;20056;-26
2023/09/03 07:33:22;;;;;;;6.10;3.38;;;;;;;27.65;46.11;97104.63;5082304;28;20062;-26
2023/09/03 07:35:47;;;;;;;5.03;2.72;;;;;;;27.47;46.24;97106.81;5082816;28;20074;-27
2023/09/03 07:38:13;;;;;;;4.50;3.00;;;;;;;27.62;45.18;97114.03;5080181;28;20065;-26
2023/09/03 07:40:39;;;;;;;5.32;2.92;;;;;;;27.72;45.46;97117.94;5076373;28;20036;-27
2023/09/03 07:43:04;;;;;;;3.97;2.42;;;;;;;27.73;45.49;97108.31;5089285;28;20070;-27
2023/09/03 07:45:30;;;;;;;4.80;2.55;;;;;;;27.68;45.50;97106.34;5081641;28;20023;-27
2023/09/03 07:47:55;;;;;;;6.57;2.60;;;;;;;27.65;45.79;97115.75;5076568;28;20431;-26
2023/09/03 07:50:22;;;;;;;3.85;2.63;;;;;;;27.72;45.55;97118.69;5080467;28;20020;-27
2023/09/03 07:52:47;;;;;;;4.85;2.85;;;;;;;27.78;45.32;97121.44;5081434;28;20075;-26
2023/09/03 07:55:12;;;;;;;5.35;2.40;;;;;;;27.78;45.44;97116.63;5084425;28;20015;-26
2023/09/03 07:57:38;;;;;;;4.53;2.60;;;;;;;27.93;45.50;97127.34;5078912;28;20016;-27
2023/09/03 08:00:04;;;;;;;6.80;2.70;;;;;;;27.74;45.37;97132.13;5082067;28;20020;-27
2023/09/03 08:02:30;;;;;;;4.47;3.05;;;;;;;27.77;45.75;97122.72;5080224;28;20017;-27
2023/09/03 08:04:55;;;;;;;6.82;2.45;;;;;;;27.82;45.19;97128.19;5082119;28;20023;-27
2023/09/03 08:07:21;;;;;;;4.07;2.55;;;;;;;27.76;45.41;97130.31;5081715;28;20013;-26
2023/09/03 08:09:46;;;;;;;5.38;2.55;;;;;;;27.81;45.75;97120.38;5079230;28;20449;-27
2023/09/03 08:12:12;;;;;;;4.00;2.10;;;;;;;27.81;45.50;97125.97;5083355;28;20027;-27
2023/09/03 08:14:38;;;;;;;4.63;2.65;;;;;;;27.87;45.71;97123.84;5077857;28;20040;-26
2023/09/03 08:17:04;;;;;;;3.33;2.30;;;;;;;28.03;45.34;97119.34;5085256;28;20102;-28
2023/09/03 08:19:30;;;;;;;10.75;2.65;;;;;;;27.92;45.58;97120.25;5081719;28;20026;-26
2023/09/03 08:21:55;;;;;;;4.50;2.60;;;;;;;27.93;45.65;97109.84;5086357;28;20469;-27
2023/09/03 08:24:21;;;;;;;4.00;2.33;;;;;;;28.01;45.27;97110.75;5075745;28;20070;-27
2023/09/03 08:26:48;;;;;;;4.30;2.33;;;;;;;28.05;45.40;97102.84;5081186;28;20120;-26
2023/09/03 08:29:13;;;;;;;3.22;2.08;;;;;;;28.02;45.27;97107.44;5081087;28;20016;-26
2023/09/03 08:31:39;;;;;;;4.85;2.45;;;;;;;28.01;45.14;97105.94;5082568;28;20381;-28
2023/09/03 08:34:04;;;;;;;3.67;2.25;;;;;;;27.96;45.58;97103.94;5079515;28;20024;-26
2023/09/03 08:36:30;;;;;;;4.25;2.30;;;;;;;28.02;45.02;97101.84;5080993;28;20024;-27
2023/09/03 08:38:55;;;;;;;6.93;2.20;;;;;;;28.16;45.01;97103.44;5083769;28;20483;-27
2023/09/03 08:41:23;;;;;;;3.92;2.38;;;;;;;27.94;45.55;97100.97;5084387;28;20093;-27
2023/09/03 08:43:52;;;;;;;4.38;2.55;;;;;;;28.07;45.26;97106.59;5075890;28;20068;-27
2023/09/03 08:46:23;;;;;;;5.13;2.88;;;;;;;28.06;44.87;97090.41;5079517;28;20040;-26
2023/09/03 08:48:49;;;;;;;3.78;2.40;;;;;;;28.06;44.62;97102.31;5080890;28;20012;-26
2023/09/03 08:51:17;;;;;;;5.40;2.45;;;;;;;28.14;44.82;97094.09;5084007;28;20385;-27
2023/09/03 08:53:44;;;;;;;3.85;2.38;;;;;;;28.22;44.42;97081.06;5076410;28;20066;-27
2023/09/03 08:56:10;;;;;;;3.13;2.22;;;;;;;28.09;45.02;97087.31;5081143;28;20020;-27
2023/09/03 08:58:36;;;;;;;5.43;2.17;;;;;;;28.12;44.98;97089.03;5079620;28;20053;-27
2023/09/03 09:01:02;;;;;;;3.85;2.58;;;;;;;28.21;44.70;97079.56;5080996;28;20069;-27
2023/09/03 09:03:29;;;;;;;3.72;2.22;;;;;;;28.16;44.62;97081.13;5084420;28;20119;-27
2023/09/03 09:05:56;;;;;;;4.28;2.13;;;;;;;28.12;44.54;97088.28;5084002;28;20522;-28
2023/09/03 09:08:23;;;;;;;3.15;2.42;;;;;;;28.11;44.60;97087.53;5082910;28;20081;-28
2023/09/03 09:10:51;;;;;;;3.42;2.60;;;;;;;28.22;44.47;97084.59;5083857;28;20016;-26
2023/09/03 09:13:24;;;;;;;5.03;2.20;;;;;;;28.13;44.46;97073.06;5074296;28;20020;-27
2023/09/03 09:15:50;;;;;;;4.22;2.33;;;;;;;28.15;44.34;97087.22;5080843;28;20495;-26
2023/09/03 09:18:16;;;;;;;4.47;2.17;;;;;;;28.16;44.24;97089.50;5080391;28;20028;-28
2023/09/03 09:20:41;;;;;;;5.85;3.03;;;;;;;28.25;43.94;97080.00;5080197;28;20024;-27
2023/09/03 09:23:08;;;;;;;3.22;2.08;;;;;;;28.28;43.94;97072.63;5072619;28;20060;-27
2023/09/03 09:25:35;;;;;;;4.13;2.63;;;;;;;28.20;44.07;97070.44;5080921;28;20493;-27
2023/09/03 09:28:10;;;;;;;5.63;2.65;;;;;;;28.23;43.68;97066.59;5078292;28;20023;-27
2023/09/03 09:30:36;;;;;;;4.15;2.42;;;;;;;28.24;43.89;97072.94;5081457;28;20020;-26
2023/09/03 09:33:06;;;;;;;2.88;2.30;;;;;;;28.29;43.41;97062.97;5080055;28;20037;-27
2023/09/03 09:35:32;;;;;;;3.42;2.40;;;;;;;28.27;42.95;97057.16;5079848;28;20024;-27
2023/09/03 09:38:05;;;;;;;5.10;2.35;;;;;;;28.31;43.35;97061.16;5076293;28;20020;-27
2023/09/03 09:40:31;;;;;;;;;;;;;;;28.29;42.98;97057.41;5083486;28;20076;-28
2023/09/03 09:42:59;;;;;;;4.68;2.00;;;;;;;28.33;43.29;97068.97;5079305;28;19959;-26
2023/09/03 09:45:25;;;;;;;2.65;1.95;;;;;;;28.32;43.19;97067.47;5079930;28;20032;-27
2023/09/03 09:48:06;;;;;;;3.35;1.92;;;;;;;28.35;42.17;97083.91;5080535;28;20012;-27
2023/09/03 09:50:43;;;;;;;5.68;2.50;;;;;;;28.37;42.50;97080.59;5083320;28;20065;-27
2023/09/03 09:53:26;;;;;;;6.00;2.10;;;;;;;28.33;42.52;97074.56;5082662;28;20055;-27
2023/09/03 09:56:02;;;;;;;5.05;2.28;;;;;;;28.39;42.18;97083.63;5075214;28;20166;-28
2023/09/03 09:58:38;;;;;;;5.80;2.15;;;;;;;28.41;42.51;97078.25;5084490;28;20073;-26
2023/09/03 10:01:04;;;;;;;4.18;1.85;;;;;;;28.33;42.11;97072.53;5081234;28;20032;-26
2023/09/03 10:03:47;;;;;;;4.53;2.42;;;;;;;28.42;42.08;97077.72;5084074;28;20028;-27
2023/09/03 10:06:13;;;;;;;3.40;2.20;;;;;;;28.43;41.17;97072.91;5074399;28;20021;-27
2023/09/03 10:08:39;;;;;;;4.00;2.03;;;;;;;28.42;40.94;97065.81;5078851;28;20438;-27
2023/09/03 10:11:05;;;;;;;4.85;2.17;;;;;;;28.51;41.05;97068.97;5079852;28;20036;-27
2023/09/03 10:13:39;;;;;;;2.97;1.95;;;;;;;28.47;41.20;97068.50;5082825;28;20012;-27
2023/09/03 10:16:07;;;;;;;5.40;1.73;;;;;;;28.54;41.19;97069.94;5082922;28;20031;-27
2023/09/03 10:18:38;;;;;;;2.17;1.75;;;;;;;28.51;40.44;97068.97;5080256;28;20381;-26
2023/09/03 10:21:06;;;;;;;3.00;1.85;;;;;;;28.47;39.96;97073.34;5079882;28;20043;-27
2023/09/03 10:23:39;;;;;;;4.03;2.08;;;;;;;28.48;40.10;97074.84;5081412;28;20775;-28
2023/09/03 10:26:06;;;;;;;;;;;;;;;28.55;39.67;97074.25;5083617;28;20036;-27
2023/09/03 10:28:36;;;;;;;3.45;1.90;;;;;;;28.52;40.19;97073.25;5080984;28;19953;-27
2023/09/03 10:31:02;;;;;;;2.30;1.88;;;;;;;28.58;39.91;97073.16;5079777;28;20078;-26
2023/09/03 10:33:27;;;;;;;3.13;2.00;;;;;;;28.54;40.14;97075.53;5080669;28;20012;-27
2023/09/03 10:36:13;;;;;;;2.85;2.10;;;;;;;28.69;39.94;97072.97;5083625;28;20101;-27
2023/09/03 10:38:39;;;;;;;3.58;2.10;;;;;;;28.66;39.72;97074.06;5076957;28;20052;-27
2023/09/03 10:41:21;;;;;;;4.43;1.88;;;;;;;28.67;39.65;97066.44;5086658;28;20075;-26
2023/09/03 10:43:48;;;;;;;4.03;2.07;;;;;;;28.65;39.52;97066.22;5083990;28;20115;-27
2023/09/03 10:46:13;;;;;;;2.47;1.95;;;;;;;28.64;39.43;97068.25;5079989;28;20031;-26
2023/09/03 10:48:39;;;;;;;3.78;1.83;;;;;;;28.68;39.21;97076.31;5079365;28;20017;-27
2023/09/03 10:51:05;;;;;;;4.75;2.10;;;;;;;28.71;39.12;97067.59;5083776;28;20036;-26
2023/09/03 10:53:40;;;;;;;3.25;2.08;;;;;;;28.74;38.99;97068.59;5082975;28;20036;-27
2023/09/03 10:56:19;;;;;;;3.97;2.00;;;;;;;28.71;38.40;97061.28;5084956;28;20024;-27
2023/09/03 10:59:10;;;;;;;5.85;2.05;;;;;;;28.78;38.56;97061.44;5079805;28;20020;-26
2023/09/03 11:01:36;;;;;;;2.97;2.03;;;;;;;28.73;38.80;97065.03;5081086;28;20075;-27
2023/09/03 11:04:03;;;;;;;4.65;1.95;;;;;;;28.72;39.77;97060.00;5082663;28;20059;-27
2023/09/03 11:06:33;;;;;;;5.50;1.95;;;;;;;28.74;39.28;97065.78;5082632;28;20032;-28
2023/09/03 11:08:59;;;;;;;3.15;1.88;;;;;;;28.75;38.55;97072.88;5090162;28;20106;-27
2023/09/03 11:11:27;;;;;;;4.05;2.42;;;;;;;28.83;38.31;97060.56;5083203;28;20098;-28
2023/09/03 11:13:53;;;;;;;4.07;2.60;;;;;;;28.86;37.89;97058.75;5088871;28;20440;-27
2023/09/03 11:16:42;;;;;;;2.65;2.33;;;;;;;28.85;37.91;97069.19;5084383;28;20073;-26
2023/09/03 11:19:08;;;;;;;2.88;2.10;;;;;;;28.93;37.94;97063.72;5075537;28;20611;-27
2023/09/03 11:21:35;;;;;;;2.78;2.03;;;;;;;28.79;38.15;97054.56;5082105;28;20058;-27
2023/09/03 11:24:02;;;;;;;3.22;2.10;;;;;;;28.80;37.79;97055.34;5082221;28;20100;-27
2023/09/03 11:26:28;;;;;;;3.17;2.08;;;;;;;28.81;37.78;97046.41;5081904;28;20533;-28
2023/09/03 11:28:54;;;;;;;4.55;2.42;;;;;;;28.92;37.67;97048.25;5074896;28;20069;-27
2023/09/03 11:31:19;;;;;;;4.78;2.70;;;;;;;28.93;37.88;97047.69;5082677;28;20024;-27
2023/09/03 11:33:45;;;;;;;3.08;1.80;;;;;;;28.90;38.04;97048.78;5082695;28;20024;-27